Time;durP1;ratioP1;P1;durP2;ratioP2;P2;SDS_P1;SDS_P2;PMS_P1;PMS_P2;Temp;Humidity;BMP_temperature;BMP_pressure;BME280_temperature;BME280_humidity;BME280_pressure;Samples;Min_cycle;Max_cycle;Signal;HPM_P1;HPM_P2
2022/03/04 00:00:15;;;;;;;20.40;13.10;;;;;;;3.49;59.77;101834.22;6279506;22;20270;-60
2022/03/04 00:02:41;;;;;;;25.95;14.20;;;;;;;3.49;60.23;101832.50;6280140;22;20008;-59
2022/03/04 00:05:06;;;;;;;23.95;13.73;;;;;;;3.49;60.26;101847.16;6279779;22;20000;-60
2022/03/04 00:07:32;;;;;;;24.02;14.75;;;;;;;3.43;61.29;101840.09;6279513;22;20008;-60
2022/03/04 00:09:57;;;;;;;23.45;14.38;;;;;;;3.41;60.33;101846.94;6279897;22;20014;-60
2022/03/04 00:12:22;;;;;;;23.55;13.82;;;;;;;3.36;60.63;101845.03;6279565;22;20334;-60
2022/03/04 00:14:47;;;;;;;21.90;14.00;;;;;;;3.37;60.36;101852.84;6279075;22;20095;-60
2022/03/04 00:17:13;;;;;;;24.65;14.93;;;;;;;3.41;60.51;101853.81;6279873;22;20091;-59
2022/03/04 00:19:38;;;;;;;23.85;14.15;;;;;;;3.43;59.84;101857.34;6280140;22;20399;-59
2022/03/04 00:22:05;;;;;;;23.38;14.70;;;;;;;3.37;60.20;101846.78;6279635;22;20042;-59
2022/03/04 00:24:31;;;;;;;25.70;14.55;;;;;;;3.35;60.22;101862.25;6279363;22;20442;-60
2022/03/04 00:26:56;;;;;;;24.33;14.93;;;;;;;3.30;60.99;101850.88;6279562;22;20010;-59
2022/03/04 00:29:21;;;;;;;25.25;14.43;;;;;;;3.29;61.00;101856.03;6279177;22;20008;-59
2022/03/04 00:31:46;;;;;;;25.63;14.40;;;;;;;3.29;60.67;101861.19;6279675;22;20000;-59
2022/03/04 00:34:12;;;;;;;24.08;14.70;;;;;;;3.23;61.33;101855.81;6253026;22;20086;-59
2022/03/04 00:36:39;;;;;;;25.05;14.55;;;;;;;3.14;61.19;101854.66;6279648;22;20030;-59
2022/03/04 00:39:10;;;;;;;25.52;14.48;;;;;;;3.20;62.10;101866.06;6279180;22;20015;-60
2022/03/04 00:41:35;;;;;;;26.33;15.40;;;;;;;3.14;62.05;101858.97;6279422;22;20014;-59
2022/03/04 00:44:01;;;;;;;26.77;14.43;;;;;;;3.11;62.03;101864.06;6280047;22;20082;-59
2022/03/04 00:46:26;;;;;;;25.75;15.35;;;;;;;3.05;62.31;101861.25;6279622;22;20011;-58
2022/03/04 00:48:52;;;;;;;23.17;14.13;;;;;;;3.00;62.50;101873.13;6279579;22;20035;-59
2022/03/04 00:51:17;;;;;;;24.70;14.30;;;;;;;3.00;62.65;101871.44;6279329;22;20007;-59
2022/03/04 00:53:43;;;;;;;25.90;15.23;;;;;;;2.96;63.81;101869.56;6279360;22;20074;-60
2022/03/04 00:56:10;;;;;;;27.45;15.68;;;;;;;2.89;63.34;101870.22;6278798;22;20003;-60
2022/03/04 00:58:37;;;;;;;28.35;15.27;;;;;;;2.82;63.75;101872.50;6279280;22;20045;-60
2022/03/04 01:01:04;;;;;;;24.83;15.43;;;;;;;2.83;62.76;101869.09;6279236;22;20341;-59
2022/03/04 01:03:29;;;;;;;27.05;15.10;;;;;;;2.81;63.24;101871.63;6278972;22;20000;-60
2022/03/04 01:05:54;;;;;;;28.73;15.77;;;;;;;2.78;62.99;101867.22;6279160;22;20097;-60
2022/03/04 01:08:20;;;;;;;28.80;15.55;;;;;;;2.78;63.32;101867.22;6278878;22;20081;-60
2022/03/04 01:10:46;;;;;;;25.75;15.73;;;;;;;2.78;64.13;101871.53;6279033;22;20090;-58
2022/03/04 01:13:11;;;;;;;25.30;15.82;;;;;;;2.71;64.43;101883.38;6279001;22;20011;-60
2022/03/04 01:15:36;;;;;;;27.40;16.00;;;;;;;2.66;64.69;101877.16;6279314;22;20008;-59
2022/03/04 01:18:02;;;;;;;26.02;15.63;;;;;;;2.44;65.42;101857.41;6279150;22;20072;-60
2022/03/04 01:20:27;;;;;;;27.42;15.15;;;;;;;2.45;65.84;101877.25;6278718;22;20014;-59
2022/03/04 01:22:52;;;;;;;29.13;16.17;;;;;;;2.35;66.40;101875.19;6279148;22;20058;-60
2022/03/04 01:25:18;;;;;;;24.83;15.32;;;;;;;2.30;67.34;101866.38;6278398;22;19996;-60
2022/03/04 01:27:43;;;;;;;27.02;16.17;;;;;;;2.26;67.05;101864.50;6279332;22;20031;-60
2022/03/04 01:30:10;;;;;;;31.45;15.80;;;;;;;2.21;66.61;101873.81;6279505;22;20060;-60
2022/03/04 01:32:36;;;;;;;26.98;15.85;;;;;;;2.14;67.33;101874.38;6278976;22;20000;-60
2022/03/04 01:35:03;;;;;;;27.58;15.85;;;;;;;2.06;68.20;101874.13;6278834;22;20011;-59
2022/03/04 01:37:29;;;;;;;27.63;15.80;;;;;;;1.99;68.47;101873.81;6278879;22;20003;-59
2022/03/04 01:39:54;;;;;;;26.65;16.15;;;;;;;1.97;68.44;101862.56;6278885;22;20014;-59
2022/03/04 01:42:20;;;;;;;30.65;16.17;;;;;;;1.91;68.74;101863.19;6278713;22;20031;-60
2022/03/04 01:44:45;;;;;;;28.73;16.20;;;;;;;1.88;68.93;101857.94;6279162;22;20404;-59
2022/03/04 01:47:11;;;;;;;32.30;16.63;;;;;;;1.84;68.38;101853.47;6278522;22;20008;-60
2022/03/04 01:49:38;;;;;;;26.50;15.75;;;;;;;1.77;69.29;101861.78;6278799;22;20074;-59
2022/03/04 01:52:03;;;;;;;27.88;16.20;;;;;;;1.70;70.02;101852.97;6278822;22;20003;-60
2022/03/04 01:54:29;;;;;;;25.38;16.00;;;;;;;1.70;69.59;101850.38;6278305;22;20013;-59
2022/03/04 01:56:54;;;;;;;28.90;16.38;;;;;;;1.63;69.65;101855.22;6279127;22;20014;-59
2022/03/04 01:59:19;;;;;;;29.45;16.73;;;;;;;1.61;70.44;101852.59;6279325;22;20031;-60
2022/03/04 02:01:45;;;;;;;27.60;16.15;;;;;;;1.51;69.84;101860.78;6278681;22;20068;-60
2022/03/04 02:04:10;;;;;;;27.90;15.60;;;;;;;1.50;70.65;101860.72;6278818;22;20023;-59
2022/03/04 02:06:35;;;;;;;26.13;15.95;;;;;;;1.45;70.85;101869.97;6278693;22;20019;-60
2022/03/04 02:09:01;;;;;;;26.35;16.15;;;;;;;1.46;70.25;101876.91;6278687;22;20011;-59
2022/03/04 02:11:27;;;;;;;29.48;16.65;;;;;;;1.41;70.22;101868.97;6278541;22;20025;-59
2022/03/04 02:13:52;;;;;;;28.73;16.35;;;;;;;1.37;70.02;101878.31;6278631;22;20039;-59
2022/03/04 02:16:34;;;;;;;27.55;16.73;;;;;;;1.39;70.33;101873.19;6278620;22;20015;-60
2022/03/04 02:19:00;;;;;;;31.55;16.55;;;;;;;1.38;70.65;101877.50;6278272;22;20081;-60
2022/03/04 02:21:27;;;;;;;30.17;17.33;;;;;;;1.35;70.62;101873.91;6278263;22;20016;-60
2022/03/04 02:23:52;;;;;;;27.10;15.77;;;;;;;1.30;69.70;101871.13;6278469;22;20015;-60
2022/03/04 02:26:18;;;;;;;32.55;17.30;;;;;;;1.29;71.15;101871.06;6278564;22;20003;-59
2022/03/04 02:28:44;;;;;;;27.58;16.77;;;;;;;1.26;70.77;101858.91;6278523;22;20010;-59
2022/03/04 02:31:13;;;;;;;30.45;17.20;;;;;;;1.24;71.11;101865.72;6278375;22;20038;-59
2022/03/04 02:33:39;;;;;;;31.83;17.50;;;;;;;1.23;71.04;101863.06;6278081;22;20309;-59
2022/03/04 02:36:04;;;;;;;31.45;17.25;;;;;;;1.16;70.53;101866.22;6278597;22;20004;-59
2022/03/04 02:38:29;;;;;;;32.50;17.85;;;;;;;1.19;70.76;101854.34;6279785;22;20004;-59
2022/03/04 02:40:55;;;;;;;32.67;17.60;;;;;;;1.19;70.95;101850.91;6280889;22;20460;-59
2022/03/04 02:43:20;;;;;;;32.30;17.77;;;;;;;1.22;71.67;101853.56;6280658;22;20008;-60
2022/03/04 02:45:45;;;;;;;31.33;17.67;;;;;;;1.15;72.21;101847.31;6280649;22;20031;-60
2022/03/04 02:48:11;;;;;;;35.05;18.25;;;;;;;1.14;72.11;101855.84;6280729;22;20004;-60
2022/03/04 02:50:36;;;;;;;32.65;18.08;;;;;;;1.10;72.42;101850.50;6280596;22;20010;-59
2022/03/04 02:53:01;;;;;;;34.97;18.27;;;;;;;1.08;72.01;101855.59;6253716;22;20015;-60
2022/03/04 02:55:27;;;;;;;30.42;17.73;;;;;;;1.09;72.16;101854.78;6280675;22;20392;-59
2022/03/04 02:57:52;;;;;;;33.05;18.25;;;;;;;1.12;71.85;101843.72;6280731;22;20015;-59
2022/03/04 03:00:17;;;;;;;33.15;17.90;;;;;;;1.03;72.32;101841.66;6280399;22;20424;-59
2022/03/04 03:02:44;;;;;;;29.70;18.10;;;;;;;1.12;71.91;101848.88;6280431;22;19999;-59
2022/03/04 03:05:09;;;;;;;32.47;17.42;;;;;;;1.04;71.09;101854.56;6280800;22;20012;-59
2022/03/04 03:07:35;;;;;;;29.95;17.63;;;;;;;0.97;71.52;101851.69;6280174;22;20381;-61
2022/03/04 03:10:01;;;;;;;30.58;17.83;;;;;;;0.96;71.47;101853.41;6280348;22;20061;-58
2022/03/04 03:12:26;;;;;;;31.55;17.58;;;;;;;0.97;72.06;101851.69;6280890;22;20074;-59
2022/03/04 03:14:51;;;;;;;31.95;17.83;;;;;;;0.95;70.79;101850.75;6280093;22;20305;-58
2022/03/04 03:17:16;;;;;;;31.38;17.60;;;;;;;0.93;71.75;101845.53;6280444;22;20291;-59
2022/03/04 03:19:42;;;;;;;30.85;18.10;;;;;;;0.91;72.65;101857.47;6280305;22;20042;-59
2022/03/04 03:22:07;;;;;;;29.75;17.55;;;;;;;0.93;72.60;101844.66;6280508;22;20000;-59
2022/03/04 03:24:32;;;;;;;31.13;18.60;;;;;;;0.88;72.36;101839.31;6280546;22;20010;-58
2022/03/04 03:26:58;;;;;;;32.85;18.00;;;;;;;0.87;71.61;101836.66;6280119;22;20007;-59
2022/03/04 03:29:23;;;;;;;33.85;18.65;;;;;;;0.90;72.30;101844.53;6280244;22;20035;-59
2022/03/04 03:31:48;;;;;;;33.72;18.35;;;;;;;0.88;72.18;101844.44;6280283;22;20042;-60
2022/03/04 03:34:14;;;;;;;31.63;18.10;;;;;;;0.86;72.55;101840.97;6280343;22;20004;-59
2022/03/04 03:36:39;;;;;;;34.63;18.13;;;;;;;0.75;72.31;101844.75;6280546;22;20007;-59
2022/03/04 03:39:05;;;;;;;33.83;19.27;;;;;;;0.82;72.39;101858.78;6279916;22;20023;-58
2022/03/04 03:41:30;;;;;;;37.42;18.27;;;;;;;0.81;71.93;101863.06;6280622;22;20313;-59
2022/03/04 03:43:55;;;;;;;31.40;17.52;;;;;;;0.74;72.06;101858.47;6279651;22;20011;-59
2022/03/04 03:46:20;;;;;;;31.88;17.85;;;;;;;0.75;72.93;101859.34;6280027;22;20000;-59
2022/03/04 03:48:46;;;;;;;34.80;18.02;;;;;;;0.70;72.99;101862.59;6279036;22;20364;-59
2022/03/04 03:51:12;;;;;;;34.90;18.70;;;;;;;0.68;73.56;101861.69;6280021;22;20008;-59
2022/03/04 03:53:37;;;;;;;33.42;17.67;;;;;;;0.70;73.12;101856.56;6279673;22;20297;-58
2022/03/04 03:56:03;;;;;;;34.22;18.52;;;;;;;0.64;72.44;101853.75;6280484;22;20053;-58
2022/03/04 03:58:28;;;;;;;32.75;18.45;;;;;;;0.59;72.98;101845.81;6279713;22;20010;-59
2022/03/04 04:00:55;;;;;;;32.15;18.95;;;;;;;0.65;73.26;101858.97;6280110;22;20065;-59
2022/03/04 04:03:20;;;;;;;32.28;17.83;;;;;;;0.70;72.61;101864.28;6279953;22;20054;-59
2022/03/04 04:05:45;;;;;;;32.80;18.85;;;;;;;0.69;72.88;101865.13;6280364;22;20004;-59
2022/03/04 04:08:10;;;;;;;32.65;18.77;;;;;;;0.64;72.53;101869.19;6279657;22;20081;-59
2022/03/04 04:10:36;;;;;;;32.42;18.13;;;;;;;0.64;72.56;101871.78;6280359;22;20027;-59
2022/03/04 04:13:01;;;;;;;36.33;19.40;;;;;;;0.61;72.88;101869.06;6280018;22;20428;-59
2022/03/04 04:15:26;;;;;;;33.58;17.77;;;;;;;0.53;72.64;101861.00;6279691;22;20053;-59
2022/03/04 04:17:51;;;;;;;34.60;19.02;;;;;;;0.52;72.74;101872.09;6280239;22;20407;-59
2022/03/04 04:20:17;;;;;;;35.42;19.08;;;;;;;0.53;72.65;101872.97;6279890;22;20004;-59
2022/03/04 04:22:42;;;;;;;35.15;19.17;;;;;;;0.57;73.03;101877.47;6279228;22;20007;-59
2022/03/04 04:25:08;;;;;;;31.75;18.05;;;;;;;0.60;72.86;101878.47;6280060;22;20036;-59
2022/03/04 04:27:34;;;;;;;35.13;18.63;;;;;;;0.54;72.67;101872.16;6279798;22;20301;-58
2022/03/04 04:29:59;;;;;;;34.70;19.42;;;;;;;0.57;72.60;101880.03;6279758;22;20003;-58
2022/03/04 04:32:24;;;;;;;35.88;18.73;;;;;;;0.53;72.85;101876.44;6279767;22;20061;-58
2022/03/04 04:34:49;;;;;;;34.83;19.00;;;;;;;0.48;72.91;101875.38;6279569;22;20027;-59
2022/03/04 04:37:15;;;;;;;33.63;18.55;;;;;;;0.48;73.05;101877.97;6279120;22;20317;-60
2022/03/04 04:39:40;;;;;;;32.35;19.23;;;;;;;0.54;72.96;101883.34;6279693;22;20011;-59
2022/03/04 04:42:06;;;;;;;33.13;18.70;;;;;;;0.48;73.11;101890.81;6280076;22;20411;-59
2022/03/04 04:44:31;;;;;;;33.78;19.23;;;;;;;0.49;72.98;101890.03;6279142;22;20089;-59
2022/03/04 04:46:56;;;;;;;35.95;19.13;;;;;;;0.49;73.51;101889.13;6279521;22;20054;-59
2022/03/04 04:49:22;;;;;;;30.52;18.00;;;;;;;0.50;73.20;101893.47;6279262;22;20004;-60
2022/03/04 04:51:47;;;;;;;35.33;18.60;;;;;;;0.49;73.53;101891.72;6279287;22;20460;-59
2022/03/04 04:54:13;;;;;;;34.67;18.90;;;;;;;0.42;73.44;101887.09;6279105;22;20007;-58
2022/03/04 04:56:38;;;;;;;37.08;19.23;;;;;;;0.44;73.29;101883.78;6279537;22;20079;-59
2022/03/04 04:59:03;;;;;;;36.65;19.48;;;;;;;0.44;73.61;101888.03;6279552;22;20016;-59
2022/03/04 05:01:28;;;;;;;38.08;20.00;;;;;;;0.37;73.91;101884.31;6278951;22;20035;-58
2022/03/04 05:03:54;;;;;;;33.35;18.95;;;;;;;0.45;73.32;101898.41;6278855;22;20012;-59
2022/03/04 05:06:19;;;;;;;37.97;20.40;;;;;;;0.35;73.52;101876.50;6279264;22;20042;-58
2022/03/04 05:08:44;;;;;;;35.30;19.52;;;;;;;0.38;73.72;101880.03;6279168;22;20315;-58
2022/03/04 05:11:10;;;;;;;34.53;19.23;;;;;;;0.42;73.70;101887.09;6279220;22;20008;-59
2022/03/04 05:13:35;;;;;;;34.78;18.77;;;;;;;0.36;73.77;101872.25;6279087;22;20096;-58
2022/03/04 05:16:00;;;;;;;34.63;19.38;;;;;;;0.36;73.84;101882.53;6279129;22;20399;-59
2022/03/04 05:18:25;;;;;;;35.70;18.92;;;;;;;0.30;73.53;101875.44;6279769;22;20015;-59
2022/03/04 05:20:50;;;;;;;38.83;19.85;;;;;;;0.29;73.97;101877.94;6279165;22;20382;-58
2022/03/04 05:23:58;;;;;;;37.42;20.25;;;;;;;0.26;74.18;101870.09;6278471;22;20025;-59
2022/03/04 05:26:01;;;;;;;37.03;19.08;;;;;;;0.32;74.06;101876.41;6278656;22;20011;-59
2022/03/04 05:28:27;;;;;;;34.75;20.08;;;;;;;0.28;74.06;101881.34;6279455;22;20003;-59
2022/03/04 05:30:52;;;;;;;36.33;19.67;;;;;;;0.24;74.16;101885.47;6279188;22;20086;-58
2022/03/04 05:33:18;;;;;;;36.88;20.13;;;;;;;0.24;74.56;101882.88;6279027;22;20394;-58
2022/03/04 05:35:43;;;;;;;37.97;19.52;;;;;;;0.23;74.61;101887.97;6278941;22;20074;-59
2022/03/04 05:38:09;;;;;;;37.85;20.65;;;;;;;0.22;74.37;101889.66;6278949;22;20022;-59
2022/03/04 05:40:34;;;;;;;35.13;19.17;;;;;;;0.11;74.89;101878.00;6278931;22;20073;-59
2022/03/04 05:42:59;;;;;;;35.40;19.48;;;;;;;0.22;74.88;101896.50;6279359;22;20309;-59
2022/03/04 05:45:24;;;;;;;35.40;20.58;;;;;;;0.19;74.67;101888.63;6278894;22;20065;-59
2022/03/04 05:47:50;;;;;;;36.42;19.80;;;;;;;0.16;74.91;101899.69;6279073;22;20034;-59
2022/03/04 05:50:15;;;;;;;37.38;19.65;;;;;;;0.16;75.04;101904.84;6278720;22;20377;-60
2022/03/04 05:52:41;;;;;;;35.10;19.98;;;;;;;0.13;74.80;101901.25;6278920;22;20077;-58
2022/03/04 05:55:06;;;;;;;37.10;19.25;;;;;;;0.10;74.93;101909.69;6278671;22;20007;-59
2022/03/04 05:57:32;;;;;;;36.30;19.90;;;;;;;0.09;75.33;101905.34;6279459;22;20018;-59
2022/03/04 05:59:59;;;;;;;39.33;19.73;;;;;;;0.08;75.67;101913.00;6277059;22;20405;-59
2022/03/04 06:02:26;;;;;;;32.92;19.65;;;;;;;0.05;75.55;101915.44;6278487;22;20341;-59
2022/03/04 06:04:51;;;;;;;34.30;19.88;;;;;;;0.04;75.82;101913.66;6278719;22;20074;-59
2022/03/04 06:07:16;;;;;;;35.35;19.65;;;;;;;0.04;75.73;101924.84;6278687;22;20106;-59
2022/03/04 06:09:41;;;;;;;37.08;20.42;;;;;;;0.01;75.52;101919.53;6278918;22;20018;-59
2022/03/04 06:12:07;;;;;;;35.30;20.25;;;;;;;0.05;75.35;101924.03;6279163;22;20038;-58
2022/03/04 06:14:32;;;;;;;42.00;20.08;;;;;;;0.06;75.58;101932.63;6278408;22;20010;-60
2022/03/04 06:16:58;;;;;;;36.42;20.08;;;;;;;0.07;75.43;101929.25;6278488;22;20098;-63
2022/03/04 06:19:23;;;;;;;36.85;20.13;;;;;;;0.02;75.35;101925.56;6279915;22;20008;-59
2022/03/04 06:21:49;;;;;;;37.53;19.85;;;;;;;0.02;75.47;101926.44;6278539;22;20078;-59
2022/03/04 06:24:14;;;;;;;36.47;19.98;;;;;;;0.07;75.57;101935.28;6278166;22;20089;-59
2022/03/04 06:26:40;;;;;;;36.92;19.77;;;;;;;0.05;75.74;101931.75;6278562;22;20007;-58
2022/03/04 06:29:05;;;;;;;36.80;19.50;;;;;;;0.08;75.85;101937.03;6278070;22;20004;-59
2022/03/04 06:31:30;;;;;;;41.47;21.48;;;;;;;0.06;75.83;101940.34;6278659;22;20129;-59
2022/03/04 06:33:56;;;;;;;36.83;20.25;;;;;;;0.09;75.86;101927.63;6278397;22;20004;-58
2022/03/04 06:36:21;;;;;;;37.75;20.15;;;;;;;0.03;75.79;101932.47;6277861;22;20011;-58
2022/03/04 06:38:46;;;;;;;35.38;19.48;;;;;;;0.14;76.02;101939.91;6279074;22;20409;-59
2022/03/04 06:41:14;;;;;;;42.00;21.33;;;;;;;0.14;75.52;101941.59;6279011;22;20018;-58
2022/03/04 06:43:40;;;;;;;40.30;21.15;;;;;;;0.17;75.57;101934.03;6278611;22;20093;-59
2022/03/04 06:46:06;;;;;;;40.47;21.33;;;;;;;0.22;75.59;101938.56;6278430;22;20014;-59
2022/03/04 06:48:33;;;;;;;40.63;21.88;;;;;;;0.26;75.63;101937.88;6278457;22;20011;-59
2022/03/04 06:50:59;;;;;;;38.50;20.63;;;;;;;0.30;75.64;101941.50;6278137;22;20073;-59
2022/03/04 06:53:24;;;;;;;39.53;21.45;;;;;;;0.34;75.07;101944.28;6278240;22;20000;-58
2022/03/04 06:55:51;;;;;;;39.50;20.50;;;;;;;0.37;75.47;101952.94;6278772;22;20382;-59
2022/03/04 06:58:16;;;;;;;39.58;20.73;;;;;;;0.29;75.45;101935.47;6251680;22;20086;-58
2022/03/04 07:00:42;;;;;;;39.28;21.40;;;;;;;0.44;75.42;101952.41;6278021;22;20042;-59
2022/03/04 07:03:08;;;;;;;40.60;20.63;;;;;;;0.48;75.68;101960.34;6278060;22;20014;-58
2022/03/04 07:05:35;;;;;;;37.50;19.80;;;;;;;0.57;75.09;101968.47;6273351;22;20019;-59
2022/03/04 07:08:00;;;;;;;40.80;20.67;;;;;;;0.64;74.85;101965.38;6278403;22;20003;-57
2022/03/04 07:10:25;;;;;;;37.60;20.95;;;;;;;0.78;74.35;101975.41;6278340;22;20392;-59
2022/03/04 07:12:51;;;;;;;39.85;20.90;;;;;;;0.86;74.02;101980.09;6279018;22;20059;-59
2022/03/04 07:15:17;;;;;;;39.08;20.27;;;;;;;0.89;73.51;101979.31;6277842;22;20073;-59
2022/03/04 07:17:43;;;;;;;42.47;21.85;;;;;;;0.97;74.02;101991.75;6278098;22;20012;-58
2022/03/04 07:20:09;;;;;;;38.72;20.45;;;;;;;1.04;73.29;101995.44;6278151;22;20023;-59
2022/03/04 07:22:38;;;;;;;38.78;20.33;;;;;;;1.14;73.53;101996.75;6278009;22;20022;-59
2022/03/04 07:25:05;;;;;;;41.33;19.73;;;;;;;1.22;72.67;101997.94;6280666;22;20289;-59
2022/03/04 07:27:33;;;;;;;35.92;20.00;;;;;;;1.32;72.60;101987.22;6280177;22;20003;-59
2022/03/04 07:29:58;;;;;;;38.45;19.98;;;;;;;1.49;72.12;101985.34;6280120;22;20000;-59
2022/03/04 07:32:23;;;;;;;42.60;20.75;;;;;;;1.76;71.06;101996.78;6280227;22;20000;-59
2022/03/04 07:34:49;;;;;;;42.47;21.10;;;;;;;2.06;70.06;101989.41;6279758;22;20467;-59
2022/03/04 07:37:14;;;;;;;38.10;20.60;;;;;;;2.36;68.78;101981.97;6280039;22;20416;-60
2022/03/04 07:39:39;;;;;;;40.33;20.55;;;;;;;2.67;67.35;101987.44;6280240;22;20087;-59
2022/03/04 07:42:05;;;;;;;33.38;19.98;;;;;;;2.94;66.60;101979.84;6279609;22;20023;-59
2022/03/04 07:44:30;;;;;;;36.08;19.65;;;;;;;3.14;65.62;101983.97;6280221;22;20385;-59
2022/03/04 07:46:55;;;;;;;37.55;19.98;;;;;;;3.43;64.66;101972.06;6279594;22;20015;-58
2022/03/04 07:49:21;;;;;;;37.58;20.60;;;;;;;3.79;64.38;101977.56;6274850;22;20064;-60
2022/03/04 07:51:47;;;;;;;38.58;19.92;;;;;;;4.07;62.25;101965.47;6279909;22;19999;-59
2022/03/04 07:54:12;;;;;;;35.08;19.75;;;;;;;4.52;61.52;101968.56;6279747;22;20065;-59
2022/03/04 07:56:38;;;;;;;38.35;20.17;;;;;;;4.97;59.11;101968.13;6280293;22;19999;-59
2022/03/04 07:59:03;;;;;;;33.38;19.83;;;;;;;5.55;58.04;101973.09;6278931;22;20008;-58
2022/03/04 08:01:28;;;;;;;29.20;18.05;;;;;;;6.15;56.13;101972.84;6277894;22;20008;-59
2022/03/04 08:03:54;;;;;;;36.25;19.15;;;;;;;6.42;54.29;101978.66;6277735;22;20278;-59
2022/03/04 08:06:19;;;;;;;31.98;18.88;;;;;;;6.84;52.72;101976.06;6277863;22;20004;-59
2022/03/04 08:08:44;;;;;;;32.50;19.65;;;;;;;7.26;51.31;101970.81;6278069;22;20008;-59
2022/03/04 08:11:09;;;;;;;31.42;19.33;;;;;;;7.49;50.63;101973.81;6279416;22;20012;-58
2022/03/04 08:13:36;;;;;;;36.58;19.42;;;;;;;7.69;48.49;101971.53;6279612;22;20011;-59
2022/03/04 08:16:02;;;;;;;32.45;19.10;;;;;;;7.51;48.76;101971.25;6280707;22;20384;-59
2022/03/04 08:18:27;;;;;;;30.63;18.77;;;;;;;7.54;48.29;101977.38;6279663;22;20044;-59
2022/03/04 08:20:53;;;;;;;33.55;19.00;;;;;;;7.68;48.40;101972.41;6280513;22;20008;-60
2022/03/04 08:23:19;;;;;;;31.80;18.90;;;;;;;8.07;47.50;101972.16;6279736;22;20446;-61
2022/03/04 08:25:44;;;;;;;34.00;19.40;;;;;;;8.52;46.90;101974.53;6278832;22;20015;-59
2022/03/04 08:28:10;;;;;;;34.28;18.30;;;;;;;9.08;45.69;101979.56;6279802;22;20008;-58
2022/03/04 08:30:35;;;;;;;32.17;18.80;;;;;;;9.50;45.24;101981.75;6279629;22;20075;-60
2022/03/04 08:33:00;;;;;;;31.15;19.10;;;;;;;9.29;44.91;101989.38;6279534;22;20068;-60
2022/03/04 08:35:26;;;;;;;33.15;19.80;;;;;;;8.89;45.44;101985.44;6279382;22;20309;-59
2022/03/04 08:37:54;;;;;;;32.42;18.55;;;;;;;8.46;45.70;101991.88;6279858;22;20003;-60
2022/03/04 08:40:20;;;;;;;36.15;19.05;;;;;;;8.22;47.82;101990.63;6279446;22;20004;-59
2022/03/04 08:42:45;;;;;;;32.55;19.88;;;;;;;7.84;47.82;101991.75;6279416;22;20003;-59
2022/03/04 08:45:13;;;;;;;34.65;19.10;;;;;;;7.50;48.70;101987.72;6279589;22;20074;-59
2022/03/04 08:47:39;;;;;;;33.42;19.83;;;;;;;7.38;49.51;102001.41;6279328;22;20000;-59
2022/03/04 08:50:05;;;;;;;32.83;19.75;;;;;;;7.21;49.56;102001.09;6277512;22;20011;-58
2022/03/04 08:52:31;;;;;;;31.90;18.42;;;;;;;7.14;50.07;102007.03;6279365;22;20012;-59
2022/03/04 08:54:56;;;;;;;29.08;18.13;;;;;;;7.13;51.25;101999.19;6278946;22;20081;-58
2022/03/04 08:57:21;;;;;;;30.10;18.67;;;;;;;7.01;49.69;102001.56;6279609;22;20007;-59
2022/03/04 08:59:47;;;;;;;29.85;19.23;;;;;;;6.92;49.43;102010.94;6279207;22;20351;-59
2022/03/04 09:02:12;;;;;;;31.27;18.77;;;;;;;6.89;50.04;102010.88;6279018;22;20011;-59
2022/03/04 09:04:37;;;;;;;34.03;19.83;;;;;;;6.74;50.30;102012.28;6278914;22;20004;-62
2022/03/04 09:07:06;;;;;;;32.20;18.88;;;;;;;6.73;50.25;102003.59;6279343;22;20265;-59
2022/03/04 09:09:32;;;;;;;28.58;18.15;;;;;;;6.88;51.11;102013.44;6278565;22;20462;-60
2022/03/04 09:11:57;;;;;;;32.35;19.05;;;;;;;6.77;49.42;102005.41;6278983;22;20008;-60
2022/03/04 09:14:23;;;;;;;33.28;19.98;;;;;;;6.68;50.00;102010.44;6278554;22;19996;-60
2022/03/04 09:16:49;;;;;;;31.83;19.05;;;;;;;6.85;50.05;102008.19;6278850;22;20006;-60
2022/03/04 09:19:14;;;;;;;31.02;18.77;;;;;;;6.93;49.81;102017.00;6279055;22;20016;-60
2022/03/04 09:21:40;;;;;;;29.77;18.85;;;;;;;7.01;49.35;102010.25;6278838;22;20083;-59
2022/03/04 09:24:06;;;;;;;32.53;18.83;;;;;;;7.07;49.62;102006.88;6278960;22;20301;-59
2022/03/04 09:26:32;;;;;;;30.30;19.20;;;;;;;7.08;49.16;102000.84;6279024;22;20011;-58
2022/03/04 09:28:57;;;;;;;34.30;19.58;;;;;;;7.06;48.92;102003.41;6278926;22;20003;-60
2022/03/04 09:31:22;;;;;;;36.35;20.40;;;;;;;7.15;49.18;101998.38;6278666;22;20274;-59
2022/03/04 09:33:47;;;;;;;32.45;18.95;;;;;;;7.23;49.36;101998.53;6251573;22;20007;-59
2022/03/04 09:36:14;;;;;;;33.03;18.92;;;;;;;7.40;48.11;102006.66;6279090;22;20000;-59
2022/03/04 09:38:40;;;;;;;30.15;18.98;;;;;;;7.32;48.39;101989.13;6278776;22;20000;-59
2022/03/04 09:41:06;;;;;;;30.13;19.17;;;;;;;7.48;49.17;101981.59;6278661;22;20034;-60
2022/03/04 09:43:32;;;;;;;30.70;19.27;;;;;;;7.55;48.17;101986.06;6278202;22;20007;-60
2022/03/04 09:45:57;;;;;;;65.50;21.00;;;;;;;7.76;48.75;101988.16;6278105;22;20080;-60
2022/03/04 09:48:23;;;;;;;71.57;20.98;;;;;;;7.99;48.52;101978.97;6278049;22;20003;-59
2022/03/04 09:50:48;;;;;;;32.97;19.98;;;;;;;7.99;47.59;101982.44;6278286;22;20312;-59
2022/03/04 09:53:14;;;;;;;33.08;20.30;;;;;;;8.21;48.30;101983.66;6278552;22;20004;-59
2022/03/04 09:55:41;;;;;;;33.15;20.17;;;;;;;8.48;48.17;101988.44;6278070;22;20308;-60
2022/03/04 09:58:15;;;;;;;29.80;19.77;;;;;;;8.64;47.76;101987.78;6278631;22;19999;-60
2022/03/04 10:00:42;;;;;;;31.17;20.20;;;;;;;8.87;46.62;101995.00;6278272;22;20007;-60
2022/03/04 10:03:48;;;;;;;31.38;19.88;;;;;;;9.13;47.69;101990.97;6278962;22;20091;-59
2022/03/04 10:06:15;;;;;;;31.75;19.92;;;;;;;9.30;45.96;101989.41;6278368;22;20293;-59
2022/03/04 10:08:52;;;;;;;32.90;19.60;;;;;;;9.14;45.41;101984.88;6279114;22;20008;-59
2022/03/04 10:11:43;;;;;;;32.05;19.67;;;;;;;9.06;46.04;101994.34;6278179;22;20003;-59
2022/03/04 10:14:13;;;;;;;33.40;19.63;;;;;;;8.88;45.26;101988.91;6271114;22;20011;-60
2022/03/04 10:16:41;;;;;;;30.42;19.50;;;;;;;8.88;46.41;101986.31;6278556;22;20007;-60
2022/03/04 10:19:11;;;;;;;30.13;19.08;;;;;;;9.05;45.87;101989.97;6278544;22;20011;-59
2022/03/04 10:21:45;;;;;;;29.10;18.33;;;;;;;9.24;45.71;102005.00;6278210;22;20004;-59
2022/03/04 10:24:10;;;;;;;31.02;18.88;;;;;;;9.20;44.32;102003.19;6278408;22;20007;-60
2022/03/04 10:26:36;;;;;;;28.90;18.58;;;;;;;9.31;45.39;101998.13;6278241;22;20000;-59
2022/03/04 10:29:16;;;;;;;31.45;18.60;;;;;;;9.46;44.65;102002.59;6278072;22;19999;-60
2022/03/04 10:32:05;;;;;;;30.13;18.90;;;;;;;9.53;44.88;102001.78;6278412;22;20290;-60
2022/03/04 10:34:55;;;;;;;26.35;18.52;;;;;;;9.44;44.71;101997.38;6278334;22;20008;-60
2022/03/04 10:37:39;;;;;;;30.67;19.10;;;;;;;9.52;43.97;102006.16;6276941;22;20014;-60
2022/03/04 10:40:17;;;;;;;34.08;19.15;;;;;;;9.73;44.62;101990.66;6278258;22;20007;-59
2022/03/04 10:42:52;;;;;;;30.08;18.48;;;;;;;9.84;44.11;101982.91;6251279;22;20011;-60
2022/03/04 10:45:26;;;;;;;27.92;17.92;;;;;;;9.88;43.62;101994.25;6278051;22;20463;-60
2022/03/04 10:47:53;;;;;;;30.13;18.83;;;;;;;9.98;43.27;101983.00;6278335;22;20018;-60
2022/03/04 10:50:34;;;;;;;29.05;18.58;;;;;;;10.16;44.19;101987.50;6278260;22;20003;-59
2022/03/04 10:53:05;;;;;;;29.92;18.05;;;;;;;10.27;43.40;101984.09;6278044;22;19999;-59
2022/03/04 10:55:50;;;;;;;31.57;19.10;;;;;;;10.13;41.45;101978.75;6278260;22;20083;-59
2022/03/04 10:58:36;;;;;;;26.80;17.67;;;;;;;10.24;42.88;101984.09;6278404;22;20288;-59
2022/03/04 11:01:08;;;;;;;29.50;18.80;;;;;;;10.27;43.69;101978.88;6280297;22;20000;-60
2022/03/04 11:03:37;;;;;;;29.58;18.27;;;;;;;10.33;42.50;101972.81;6280160;22;20015;-59
2022/03/04 11:06:04;;;;;;;28.15;17.23;;;;;;;10.29;41.59;101976.28;6279865;22;20374;-59
2022/03/04 11:08:30;;;;;;;28.02;18.23;;;;;;;10.43;42.29;101974.59;6280298;22;20019;-60
2022/03/04 11:10:57;;;;;;;28.20;18.00;;;;;;;10.53;41.82;101984.28;6280277;22;20003;-60
2022/03/04 11:13:23;;;;;;;28.10;18.13;;;;;;;10.52;42.01;101972.06;6279091;22;20026;-59